createdAt,value
2023-05-08T00:00:08.250Z,0.00
2023-05-08T00:01:08.029Z,0.00
2023-05-08T00:02:07.973Z,0.00
2023-05-08T00:03:08.086Z,0.00
2023-05-08T00:04:08.156Z,0.00
2023-05-08T00:05:08.082Z,0.00
2023-05-08T00:06:08.067Z,0.00
2023-05-08T00:07:07.945Z,0.00
2023-05-08T00:08:07.941Z,0.00
2023-05-08T00:09:07.954Z,0.00
2023-05-08T00:10:07.941Z,0.00
2023-05-08T00:11:07.914Z,0.00
2023-05-08T00:12:07.887Z,0.00
2023-05-08T00:13:07.964Z,0.00
2023-05-08T00:14:07.867Z,0.00
2023-05-08T00:15:07.895Z,0.00
2023-05-08T00:16:07.887Z,0.00
2023-05-08T00:17:08.051Z,0.00
2023-05-08T00:18:07.831Z,0.00
2023-05-08T00:19:07.809Z,0.00
2023-05-08T00:20:07.819Z,0.00
2023-05-08T00:21:07.794Z,0.00
2023-05-08T00:22:07.754Z,0.00
2023-05-08T00:23:07.805Z,0.00
2023-05-08T00:24:07.752Z,0.00
2023-05-08T00:25:07.794Z,0.00
2023-05-08T00:26:07.751Z,0.00
2023-05-08T00:27:07.765Z,0.00
2023-05-08T00:28:07.712Z,0.00
2023-05-08T00:29:07.726Z,0.00
2023-05-08T00:30:07.688Z,0.00
2023-05-08T00:31:07.725Z,0.00
2023-05-08T00:32:07.696Z,0.00
2023-05-08T00:33:07.744Z,0.00
2023-05-08T00:34:07.694Z,0.00
2023-05-08T00:35:07.688Z,0.00
2023-05-08T00:36:07.609Z,0.00
2023-05-08T00:37:07.624Z,0.00
2023-05-08T00:38:07.660Z,0.00
2023-05-08T00:39:07.614Z,0.00
2023-05-08T00:40:07.589Z,0.00
2023-05-08T00:41:07.587Z,0.00
2023-05-08T00:42:07.542Z,0.00
2023-05-08T00:43:07.563Z,0.00
2023-05-08T00:44:07.536Z,0.00
2023-05-08T00:45:07.516Z,0.00
2023-05-08T00:46:07.537Z,0.00
2023-05-08T00:47:07.515Z,0.00
2023-05-08T00:48:07.485Z,0.00
2023-05-08T00:49:07.492Z,0.00
2023-05-08T00:50:07.486Z,0.00
2023-05-08T00:51:07.511Z,0.00
2023-05-08T00:52:07.416Z,0.00
2023-05-08T00:53:07.456Z,0.00
2023-05-08T00:54:07.417Z,0.00
2023-05-08T00:55:07.459Z,0.00
2023-05-08T00:56:07.386Z,0.00
2023-05-08T00:57:07.429Z,0.00
2023-05-08T00:58:07.416Z,0.00
2023-05-08T00:59:07.389Z,0.00
2023-05-08T01:00:07.371Z,0.00
2023-05-08T01:01:07.397Z,0.00
2023-05-08T01:02:07.309Z,0.00
2023-05-08T01:03:07.467Z,0.00
2023-05-08T01:04:07.343Z,0.00
2023-05-08T01:05:07.330Z,0.00
2023-05-08T01:06:07.270Z,0.00
2023-05-08T01:07:07.282Z,0.00
2023-05-08T01:08:07.259Z,0.00
2023-05-08T01:09:07.327Z,0.00
2023-05-08T01:10:07.252Z,0.00
2023-05-08T01:11:07.248Z,0.00
2023-05-08T01:12:07.204Z,0.00
2023-05-08T01:13:07.297Z,0.00
2023-05-08T01:14:07.222Z,0.00
2023-05-08T01:15:07.207Z,0.00
2023-05-08T01:16:07.216Z,0.00
2023-05-08T01:17:07.189Z,0.00
2023-05-08T01:18:07.166Z,0.00
2023-05-08T01:19:07.162Z,0.00
2023-05-08T01:20:07.132Z,0.00
2023-05-08T01:21:07.118Z,0.00
2023-05-08T01:22:07.108Z,0.00
2023-05-08T01:23:07.130Z,0.00
2023-05-08T01:24:07.073Z,0.00
2023-05-08T01:25:07.106Z,0.00
2023-05-08T01:26:07.069Z,0.00
2023-05-08T01:27:07.072Z,0.00
2023-05-08T01:28:07.026Z,0.00
2023-05-08T01:29:07.035Z,0.00
2023-05-08T01:30:07.119Z,0.00
2023-05-08T01:31:07.123Z,0.00
2023-05-08T01:32:07.036Z,0.00
2023-05-08T01:33:07.053Z,0.00
2023-05-08T01:34:07.009Z,0.00
2023-05-08T01:35:06.960Z,0.00
2023-05-08T01:36:07.340Z,0.00
2023-05-08T01:37:06.953Z,0.00
2023-05-08T01:38:06.993Z,0.00
2023-05-08T01:39:06.915Z,0.00
2023-05-08T01:40:06.972Z,0.00
2023-05-08T01:41:06.898Z,0.00
2023-05-08T01:42:06.955Z,0.00
2023-05-08T01:43:06.866Z,0.00
2023-05-08T01:44:06.885Z,0.00
2023-05-08T01:45:06.854Z,0.00
2023-05-08T01:46:06.858Z,0.00
2023-05-08T01:47:07.014Z,0.00
2023-05-08T01:48:06.890Z,0.00
2023-05-08T01:49:06.805Z,0.00
2023-05-08T01:50:06.880Z,0.00
2023-05-08T01:51:06.789Z,0.00
2023-05-08T01:52:06.858Z,0.00
2023-05-08T01:53:06.755Z,0.00
2023-05-08T01:54:08.706Z,0.00
2023-05-08T01:55:06.745Z,0.00
2023-05-08T01:56:06.804Z,0.00
2023-05-08T01:57:06.779Z,0.00
2023-05-08T01:58:06.762Z,0.00
2023-05-08T01:59:06.692Z,0.00
2023-05-08T02:00:06.718Z,0.00
2023-05-08T02:01:06.720Z,0.00
2023-05-08T02:02:06.713Z,0.00
2023-05-08T02:03:06.754Z,0.00
2023-05-08T02:04:06.718Z,0.00
2023-05-08T02:05:06.621Z,0.00
2023-05-08T02:06:06.635Z,0.00
2023-05-08T02:07:06.649Z,0.00
2023-05-08T02:08:06.643Z,0.00
2023-05-08T02:09:06.574Z,0.00
2023-05-08T02:10:06.624Z,0.00
2023-05-08T02:11:06.568Z,0.00
2023-05-08T02:12:06.584Z,0.00
2023-05-08T02:13:06.564Z,0.00
2023-05-08T02:14:06.574Z,0.00
2023-05-08T02:15:06.650Z,0.00
2023-05-08T02:16:06.924Z,0.00
2023-05-08T02:17:06.530Z,0.00
2023-05-08T02:18:06.586Z,0.00
2023-05-08T02:19:06.507Z,0.00
2023-05-08T02:20:06.504Z,0.00
2023-05-08T02:21:06.490Z,0.00
2023-05-08T02:22:06.470Z,0.00
2023-05-08T02:23:06.475Z,0.00
2023-05-08T02:24:06.439Z,0.00
2023-05-08T02:25:06.465Z,0.00
2023-05-08T02:26:06.414Z,0.00
2023-05-08T02:27:06.426Z,0.00
2023-05-08T02:28:06.431Z,0.00
2023-05-08T02:29:06.364Z,0.00
2023-05-08T02:30:06.460Z,0.00
2023-05-08T02:31:06.329Z,0.00
2023-05-08T02:32:06.406Z,0.00
2023-05-08T02:33:06.402Z,0.00
2023-05-08T02:34:06.341Z,0.00
2023-05-08T02:35:06.323Z,0.00
2023-05-08T02:36:06.334Z,0.00
2023-05-08T02:37:06.408Z,0.00
2023-05-08T02:38:06.266Z,0.00
2023-05-08T02:39:06.258Z,0.00
2023-05-08T02:40:06.262Z,0.00
2023-05-08T02:41:06.222Z,0.00
2023-05-08T02:42:06.245Z,0.00
2023-05-08T02:43:06.217Z,0.00
2023-05-08T02:44:06.227Z,0.00
2023-05-08T02:45:06.244Z,0.00
2023-05-08T02:46:06.230Z,0.00
2023-05-08T02:47:07.183Z,0.00
2023-05-08T02:48:06.239Z,0.00
2023-05-08T02:49:06.180Z,0.00
2023-05-08T02:50:06.189Z,0.00
2023-05-08T02:51:06.147Z,0.00
2023-05-08T02:52:06.124Z,0.00
2023-05-08T02:53:06.092Z,0.00
2023-05-08T02:54:06.111Z,0.00
2023-05-08T02:55:06.103Z,0.00
2023-05-08T02:56:06.077Z,0.00
2023-05-08T02:57:06.092Z,0.00
2023-05-08T02:58:06.230Z,0.00
2023-05-08T02:59:06.056Z,0.00
2023-05-08T03:00:06.086Z,0.00
2023-05-08T03:01:06.046Z,0.00
2023-05-08T03:02:06.030Z,0.00
2023-05-08T03:03:06.078Z,0.00
2023-05-08T03:04:06.093Z,0.00
2023-05-08T03:05:05.976Z,0.00
2023-05-08T03:06:05.966Z,0.00
2023-05-08T03:07:05.951Z,0.00
2023-05-08T03:08:05.940Z,0.00
2023-05-08T03:09:05.950Z,0.00
2023-05-08T03:10:05.953Z,0.00
2023-05-08T03:11:05.897Z,0.00
2023-05-08T03:12:05.945Z,0.00
2023-05-08T03:13:05.992Z,0.00
2023-05-08T03:14:05.907Z,0.00
2023-05-08T03:15:05.857Z,0.00
2023-05-08T03:16:05.886Z,0.00
2023-05-08T03:17:05.827Z,0.00
2023-05-08T03:18:05.874Z,0.00
2023-05-08T03:19:05.837Z,0.00
2023-05-08T03:20:05.828Z,0.00
2023-05-08T03:21:05.778Z,0.00
2023-05-08T03:22:05.806Z,0.00
2023-05-08T03:23:05.773Z,0.00
2023-05-08T03:24:05.776Z,0.00
2023-05-08T03:25:05.736Z,0.00
2023-05-08T03:26:05.754Z,0.00
2023-05-08T03:27:05.759Z,0.00
2023-05-08T03:28:05.723Z,0.00
2023-05-08T03:29:05.702Z,0.00
2023-05-08T03:30:05.711Z,0.00
2023-05-08T03:31:05.739Z,0.00
2023-05-08T03:32:05.697Z,0.00
2023-05-08T03:33:05.741Z,0.00
2023-05-08T03:34:05.714Z,0.00
2023-05-08T03:35:05.616Z,0.00
2023-05-08T03:36:05.659Z,0.00
2023-05-08T03:37:05.657Z,4.00
2023-05-08T03:38:06.078Z,4.00
2023-05-08T03:39:05.584Z,4.00
2023-05-08T03:40:05.582Z,0.00
2023-05-08T03:41:05.658Z,4.00
2023-05-08T03:42:05.560Z,4.00
2023-05-08T03:43:05.540Z,4.00
2023-05-08T03:44:05.563Z,8.00
2023-05-08T03:45:05.521Z,4.00
2023-05-08T03:46:05.528Z,8.00
2023-05-08T03:47:05.630Z,8.00
2023-05-08T03:48:05.585Z,8.00
2023-05-08T03:49:05.503Z,12.00
2023-05-08T03:50:05.503Z,12.00
2023-05-08T03:51:05.462Z,12.00
2023-05-08T03:52:05.567Z,12.00
2023-05-08T03:53:05.430Z,16.00
2023-05-08T03:54:05.463Z,16.00
2023-05-08T03:55:05.406Z,16.00
2023-05-08T03:56:05.459Z,16.00
2023-05-08T03:57:05.454Z,20.00
2023-05-08T03:58:05.399Z,20.00
2023-05-08T03:59:05.510Z,20.00
2023-05-08T04:00:05.431Z,24.00
2023-05-08T04:01:05.357Z,20.00
2023-05-08T04:02:05.428Z,24.00
2023-05-08T04:03:05.496Z,24.00
2023-05-08T04:04:05.400Z,28.00
2023-05-08T04:05:05.302Z,28.00
2023-05-08T04:06:05.339Z,28.00
2023-05-08T04:07:05.376Z,32.00
2023-05-08T04:08:05.300Z,32.00
2023-05-08T04:09:05.250Z,36.00
2023-05-08T04:10:05.290Z,36.00
2023-05-08T04:11:05.254Z,36.00
2023-05-08T04:12:05.285Z,36.00
2023-05-08T04:13:05.310Z,36.00
2023-05-08T04:14:05.222Z,32.00
2023-05-08T04:15:05.182Z,32.00
2023-05-08T04:16:05.282Z,28.00
2023-05-08T04:17:05.243Z,28.00
2023-05-08T04:18:05.415Z,28.00
2023-05-08T04:19:05.157Z,32.00
2023-05-08T04:20:05.176Z,32.00
2023-05-08T04:21:05.177Z,32.00
2023-05-08T04:22:05.161Z,36.00
2023-05-08T04:23:05.173Z,40.00
2023-05-08T04:24:05.124Z,40.00
2023-05-08T04:25:05.090Z,40.00
2023-05-08T04:26:05.642Z,40.00
2023-05-08T04:27:05.105Z,44.00
2023-05-08T04:28:05.108Z,48.00
2023-05-08T04:29:05.030Z,48.00
2023-05-08T04:30:05.083Z,56.00
2023-05-08T04:31:05.033Z,60.00
2023-05-08T04:32:05.083Z,68.00
2023-05-08T04:33:05.089Z,72.00
2023-05-08T04:34:05.053Z,72.00
2023-05-08T04:35:04.981Z,72.00
2023-05-08T04:36:05.009Z,72.00
2023-05-08T04:37:04.990Z,76.00
2023-05-08T04:38:04.968Z,72.00
2023-05-08T04:39:04.925Z,76.00
2023-05-08T04:40:05.406Z,84.00
2023-05-08T04:41:04.936Z,88.00
2023-05-08T04:42:04.937Z,96.00
2023-05-08T04:43:04.900Z,100.00
2023-05-08T04:44:05.622Z,104.00
2023-05-08T04:45:05.011Z,108.00
2023-05-08T04:46:04.942Z,108.00
2023-05-08T04:47:04.835Z,112.00
2023-05-08T04:48:04.917Z,112.00
2023-05-08T04:49:04.803Z,112.00
2023-05-08T04:50:04.820Z,108.00
2023-05-08T04:51:04.930Z,108.00
2023-05-08T04:52:04.794Z,112.00
2023-05-08T04:53:04.757Z,116.00
2023-05-08T04:54:04.826Z,120.00
2023-05-08T04:55:04.792Z,128.00
2023-05-08T04:56:04.846Z,132.00
2023-05-08T04:57:04.745Z,136.00
2023-05-08T04:58:04.774Z,140.00
2023-05-08T04:59:04.718Z,140.00
2023-05-08T05:00:04.719Z,144.00
2023-05-08T05:01:04.690Z,148.00
2023-05-08T05:02:04.768Z,156.00
2023-05-08T05:03:04.745Z,168.00
2023-05-08T05:04:04.784Z,180.00
2023-05-08T05:05:04.643Z,196.00
2023-05-08T05:06:04.639Z,204.00
2023-05-08T05:07:04.681Z,220.00
2023-05-08T05:08:04.737Z,232.00
2023-05-08T05:09:04.630Z,240.00
2023-05-08T05:10:04.627Z,248.00
2023-05-08T05:11:04.559Z,252.00
2023-05-08T05:12:04.681Z,256.00
2023-05-08T05:13:04.943Z,252.00
2023-05-08T05:14:04.634Z,252.00
2023-05-08T05:15:04.940Z,252.00
2023-05-08T05:16:04.623Z,252.00
2023-05-08T05:17:04.570Z,248.00
2023-05-08T05:18:05.222Z,248.00
2023-05-08T05:19:04.583Z,252.00
2023-05-08T05:20:04.549Z,260.00
2023-05-08T05:21:04.636Z,268.00
2023-05-08T05:22:04.489Z,280.00
2023-05-08T05:23:04.660Z,288.00
2023-05-08T05:24:04.477Z,296.00
2023-05-08T05:25:04.409Z,308.00
2023-05-08T05:26:04.504Z,312.00
2023-05-08T05:27:04.437Z,320.00
2023-05-08T05:28:04.497Z,316.00
2023-05-08T05:29:04.373Z,328.00
2023-05-08T05:30:04.393Z,324.00
2023-05-08T05:31:04.403Z,316.00
2023-05-08T05:32:04.353Z,316.00
2023-05-08T05:33:04.855Z,304.00
2023-05-08T05:34:04.396Z,296.00
2023-05-08T05:35:04.317Z,288.00
2023-05-08T05:36:04.381Z,284.00
2023-05-08T05:37:04.274Z,280.00
2023-05-08T05:38:04.341Z,272.00
2023-05-08T05:39:04.289Z,272.00
2023-05-08T05:40:04.363Z,268.00
2023-05-08T05:41:04.606Z,260.00
2023-05-08T05:42:04.248Z,252.00
2023-05-08T05:43:04.270Z,248.00
2023-05-08T05:44:04.257Z,248.00
2023-05-08T05:45:04.719Z,248.00
2023-05-08T05:46:04.204Z,252.00
2023-05-08T05:47:04.190Z,256.00
2023-05-08T05:48:04.307Z,264.00
2023-05-08T05:49:04.206Z,272.00
2023-05-08T05:50:04.136Z,276.00
2023-05-08T05:51:04.198Z,280.00
2023-05-08T05:52:04.132Z,284.00
2023-05-08T05:53:04.565Z,296.00
2023-05-08T05:54:04.170Z,300.00
2023-05-08T05:55:04.106Z,312.00
2023-05-08T05:56:04.064Z,320.00
2023-05-08T05:57:04.092Z,328.00
2023-05-08T05:58:04.294Z,336.00
2023-05-08T05:59:04.130Z,356.00
2023-05-08T06:00:04.047Z,380.00
2023-05-08T06:01:04.423Z,404.00
2023-05-08T06:02:04.173Z,428.00
2023-05-08T06:03:04.220Z,464.00
2023-05-08T06:04:04.111Z,508.00
2023-05-08T06:05:04.012Z,552.00
2023-05-08T06:06:03.957Z,588.00
2023-05-08T06:07:04.036Z,612.00
2023-05-08T06:08:04.000Z,620.00
2023-05-08T06:09:03.980Z,628.00
2023-05-08T06:10:03.911Z,652.00
2023-05-08T06:11:03.919Z,688.00
2023-05-08T06:12:03.882Z,736.00
2023-05-08T06:13:04.004Z,792.00
2023-05-08T06:14:04.021Z,852.00
2023-05-08T06:15:03.907Z,896.00
2023-05-08T06:16:03.831Z,936.00
2023-05-08T06:17:03.943Z,972.00
2023-05-08T06:18:03.891Z,1004.00
2023-05-08T06:19:03.868Z,1032.00
2023-05-08T06:20:03.882Z,1052.00
2023-05-08T06:21:03.842Z,1072.00
2023-05-08T06:22:03.825Z,1104.00
2023-05-08T06:23:03.962Z,1136.00
2023-05-08T06:24:03.747Z,1168.00
2023-05-08T06:25:03.763Z,1188.00
2023-05-08T06:26:03.766Z,1208.00
2023-05-08T06:27:03.775Z,1224.00
2023-05-08T06:28:03.727Z,1244.00
2023-05-08T06:29:03.748Z,1272.00
2023-05-08T06:30:03.685Z,1296.00
2023-05-08T06:31:03.853Z,1328.00
2023-05-08T06:32:03.703Z,1388.00
2023-05-08T06:33:03.715Z,1448.00
2023-05-08T06:34:03.849Z,1524.00
2023-05-08T06:35:03.682Z,1612.00
2023-05-08T06:36:03.648Z,1712.00
2023-05-08T06:37:03.631Z,1832.00
2023-05-08T06:38:03.635Z,1960.00
2023-05-08T06:39:03.642Z,2080.00
2023-05-08T06:40:12.085Z,2180.00
2023-05-08T06:41:04.678Z,2264.00
2023-05-08T06:42:04.266Z,2340.00
2023-05-08T06:43:04.006Z,2408.00
2023-05-08T06:44:03.573Z,2488.00
2023-05-08T06:45:03.579Z,2588.00
2023-05-08T06:46:03.920Z,2716.00
2023-05-08T06:47:03.709Z,2812.00
2023-05-08T06:48:03.717Z,2868.00
2023-05-08T06:49:03.561Z,2892.00
2023-05-08T06:50:03.586Z,2856.00
2023-05-08T06:51:03.582Z,2812.00
2023-05-08T06:52:03.594Z,2748.00
2023-05-08T06:53:03.676Z,2660.00
2023-05-08T06:54:03.486Z,2580.00
2023-05-08T06:55:03.519Z,2532.00
2023-05-08T06:56:03.562Z,2496.00
2023-05-08T06:57:03.629Z,2456.00
2023-05-08T06:58:03.516Z,2412.00
2023-05-08T06:59:08.290Z,2364.00
2023-05-08T07:00:04.521Z,2316.00
2023-05-08T07:01:03.480Z,2288.00
2023-05-08T07:02:03.526Z,2268.00
2023-05-08T07:03:03.587Z,2256.00
2023-05-08T07:04:03.352Z,2244.00
2023-05-08T07:05:03.625Z,2240.00
2023-05-08T07:06:03.352Z,2232.00
2023-05-08T07:07:03.398Z,2232.00
2023-05-08T07:08:03.338Z,2248.00
2023-05-08T07:09:03.333Z,2276.00
2023-05-08T07:10:03.283Z,2320.00
2023-05-08T07:11:03.373Z,2364.00
2023-05-08T07:12:03.311Z,2404.00
2023-05-08T07:13:03.343Z,2444.00
2023-05-08T07:14:03.329Z,2440.00
2023-05-08T07:15:13.897Z,2420.00
2023-05-08T07:16:04.243Z,2392.00
2023-05-08T07:17:03.241Z,2360.00
2023-05-08T07:18:03.303Z,2320.00
2023-05-08T07:19:03.210Z,2280.00
2023-05-08T07:20:03.189Z,2224.00
2023-05-08T07:21:03.175Z,2192.00
2023-05-08T07:22:03.259Z,2160.00
2023-05-08T07:23:03.165Z,2144.00
2023-05-08T07:24:04.673Z,2136.00
2023-05-08T07:25:03.131Z,2140.00
2023-05-08T07:26:03.194Z,2152.00
2023-05-08T07:27:03.125Z,2172.00
2023-05-08T07:28:03.072Z,2196.00
2023-05-08T07:29:03.087Z,2232.00
2023-05-08T07:30:03.091Z,2260.00
2023-05-08T07:31:03.102Z,2276.00
2023-05-08T07:32:03.123Z,2280.00
2023-05-08T07:33:03.060Z,2296.00
2023-05-08T07:34:03.036Z,2320.00
2023-05-08T07:35:03.052Z,2336.00
2023-05-08T07:36:02.978Z,2324.00
2023-05-08T07:37:03.016Z,2296.00
2023-05-08T07:38:02.979Z,2212.00
2023-05-08T07:39:02.962Z,2124.00
2023-05-08T07:40:02.926Z,2048.00
2023-05-08T07:41:03.005Z,2012.00
2023-05-08T07:42:02.908Z,2016.00
2023-05-08T07:43:02.989Z,2044.00
2023-05-08T07:44:02.975Z,2072.00
2023-05-08T07:45:02.981Z,2108.00
2023-05-08T07:46:02.872Z,2140.00
2023-05-08T07:47:02.894Z,2184.00
2023-05-08T07:48:02.929Z,2220.00
2023-05-08T07:49:02.865Z,2260.00
2023-05-08T07:50:02.919Z,2308.00
2023-05-08T07:51:02.845Z,2320.00
2023-05-08T07:52:02.801Z,2308.00
2023-05-08T07:53:02.804Z,2264.00
2023-05-08T07:54:02.775Z,2212.00
2023-05-08T07:55:02.808Z,2156.00
2023-05-08T07:56:02.755Z,2108.00
2023-05-08T07:57:02.732Z,2088.00
2023-05-08T07:58:02.738Z,2072.00
2023-05-08T07:59:02.764Z,2040.00
2023-05-08T08:00:02.662Z,1924.00
2023-05-08T08:01:02.919Z,1800.00
2023-05-08T08:02:02.750Z,1700.00
2023-05-08T08:03:02.838Z,1612.00
2023-05-08T08:04:04.262Z,1576.00
2023-05-08T08:05:02.778Z,1624.00
2023-05-08T08:06:02.699Z,1664.00
2023-05-08T08:07:02.672Z,1620.00
2023-05-08T08:08:02.664Z,1524.00
2023-05-08T08:09:02.663Z,1440.00
2023-05-08T08:10:02.622Z,1336.00
2023-05-08T08:11:03.958Z,1244.00
2023-05-08T08:12:02.637Z,1144.00
2023-05-08T08:13:02.700Z,1040.00
2023-05-08T08:14:02.597Z,964.00
2023-05-08T08:15:02.631Z,948.00
2023-05-08T08:16:02.565Z,968.00
2023-05-08T08:17:02.681Z,1008.00
2023-05-08T08:18:02.568Z,1044.00
2023-05-08T08:19:02.518Z,1124.00
2023-05-08T08:20:02.542Z,1268.00
2023-05-08T08:21:02.490Z,1452.00
2023-05-08T08:22:02.435Z,1540.00
2023-05-08T08:23:02.576Z,1684.00
2023-05-08T08:24:03.879Z,1920.00
2023-05-08T08:25:03.944Z,2084.00
2023-05-08T08:26:02.406Z,2188.00
2023-05-08T08:27:02.401Z,2256.00
2023-05-08T08:28:02.475Z,2272.00
2023-05-08T08:29:02.386Z,2288.00
2023-05-08T08:30:12.817Z,2308.00
2023-05-08T08:31:03.456Z,2352.00
2023-05-08T08:32:02.329Z,2436.00
2023-05-08T08:33:02.537Z,2540.00
2023-05-08T08:34:02.393Z,2660.00
2023-05-08T08:35:02.396Z,2812.00
2023-05-08T08:36:02.362Z,2940.00
2023-05-08T08:37:02.319Z,3076.00
2023-05-08T08:38:02.234Z,3224.00
2023-05-08T08:39:02.292Z,3396.00
2023-05-08T08:40:02.247Z,3556.00
2023-05-08T08:41:02.662Z,3736.00
2023-05-08T08:42:02.201Z,3928.00
2023-05-08T08:43:02.512Z,4112.00
2023-05-08T08:44:02.221Z,4240.00
2023-05-08T08:45:02.375Z,4284.00
2023-05-08T08:46:02.522Z,4272.00
2023-05-08T08:47:02.163Z,4224.00
2023-05-08T08:48:02.182Z,4172.00
2023-05-08T08:49:02.164Z,4144.00
2023-05-08T08:50:02.165Z,4144.00
2023-05-08T08:51:02.151Z,4172.00
2023-05-08T08:52:02.101Z,4276.00
2023-05-08T08:53:02.229Z,4468.00
2023-05-08T08:54:02.082Z,4740.00
2023-05-08T08:55:02.177Z,4852.00
2023-05-08T08:56:02.045Z,4916.00
2023-05-08T08:57:02.062Z,4900.00
2023-05-08T08:58:02.010Z,4956.00
2023-05-08T08:59:02.009Z,4620.00
2023-05-08T09:00:02.036Z,4148.00
2023-05-08T09:01:01.994Z,4312.00
2023-05-08T09:02:02.265Z,4412.00
2023-05-08T09:03:02.216Z,4440.00
2023-05-08T09:04:02.068Z,4384.00
2023-05-08T09:05:02.033Z,4324.00
2023-05-08T09:06:02.010Z,4264.00
2023-05-08T09:07:01.942Z,4240.00
2023-05-08T09:08:01.910Z,4268.00
2023-05-08T09:09:03.464Z,4292.00
2023-05-08T09:10:01.943Z,4332.00
2023-05-08T09:11:01.885Z,4452.00
2023-05-08T09:12:01.875Z,4652.00
2023-05-08T09:13:01.904Z,4764.00
2023-05-08T09:14:02.169Z,4784.00
2023-05-08T09:15:01.896Z,4772.00
2023-05-08T09:16:02.938Z,4652.00
2023-05-08T09:17:01.839Z,4656.00
2023-05-08T09:18:01.925Z,4732.00
2023-05-08T09:19:03.336Z,4744.00
2023-05-08T09:20:01.760Z,4712.00
2023-05-08T09:21:01.874Z,4676.00
2023-05-08T09:22:01.740Z,4692.00
2023-05-08T09:23:01.762Z,4512.00
2023-05-08T09:24:01.713Z,4472.00
2023-05-08T09:25:03.187Z,4528.00
2023-05-08T09:26:01.728Z,4596.00
2023-05-08T09:27:01.753Z,4712.00
2023-05-08T09:28:01.697Z,4564.00
2023-05-08T09:29:01.718Z,4388.00
2023-05-08T09:30:01.701Z,4040.00
2023-05-08T09:31:01.760Z,3552.00
2023-05-08T09:32:01.627Z,4164.00
2023-05-08T09:33:01.701Z,4256.00
2023-05-08T09:34:01.603Z,4328.00
2023-05-08T09:35:01.639Z,4492.00
2023-05-08T09:36:01.594Z,4600.00
2023-05-08T09:37:01.630Z,4632.00
2023-05-08T09:38:01.574Z,4540.00
2023-05-08T09:39:01.569Z,4312.00
2023-05-08T09:40:01.655Z,4344.00
2023-05-08T09:41:01.557Z,4180.00
2023-05-08T09:42:01.534Z,4108.00
2023-05-08T09:43:01.527Z,3972.00
2023-05-08T09:44:01.538Z,4012.00
2023-05-08T09:45:01.490Z,3988.00
2023-05-08T09:46:03.022Z,3840.00
2023-05-08T09:47:01.500Z,3820.00
2023-05-08T09:48:01.463Z,3824.00
2023-05-08T09:49:01.474Z,3716.00
2023-05-08T09:50:01.423Z,3672.00
2023-05-08T09:51:01.440Z,3644.00
2023-05-08T09:52:01.464Z,3612.00
2023-05-08T09:53:01.604Z,3620.00
2023-05-08T09:54:01.367Z,3624.00
2023-05-08T09:55:01.520Z,3660.00
2023-05-08T09:56:01.370Z,3636.00
2023-05-08T09:57:01.377Z,3548.00
2023-05-08T09:58:01.371Z,3524.00
2023-05-08T09:59:01.347Z,3520.00
2023-05-08T10:00:01.353Z,3616.00
2023-05-08T10:01:01.430Z,3604.00
2023-05-08T10:02:01.321Z,3724.00
2023-05-08T10:03:01.401Z,3964.00
2023-05-08T10:04:01.316Z,4104.00
2023-05-08T10:05:01.349Z,4148.00
2023-05-08T10:06:01.410Z,4340.00
2023-05-08T10:07:02.758Z,4528.00
2023-05-08T10:08:01.256Z,4540.00
2023-05-08T10:09:01.263Z,4592.00
2023-05-08T10:10:01.261Z,4740.00
2023-05-08T10:11:01.174Z,5320.00
2023-05-08T10:12:01.210Z,5492.00
2023-05-08T10:13:01.241Z,5668.00
2023-05-08T10:14:01.191Z,6004.00
2023-05-08T10:15:01.189Z,6184.00
2023-05-08T10:16:01.160Z,6280.00
2023-05-08T10:17:01.155Z,6240.00
2023-05-08T10:18:01.223Z,6232.00
2023-05-08T10:19:01.103Z,6080.00
2023-05-08T10:20:01.201Z,6376.00
2023-05-08T10:21:01.140Z,6744.00
2023-05-08T10:22:01.086Z,6664.00
2023-05-08T10:23:01.071Z,6836.00
2023-05-08T10:24:01.067Z,7424.00
2023-05-08T10:25:01.092Z,7376.00
2023-05-08T10:26:01.048Z,6940.00
2023-05-08T10:27:06.249Z,6972.00
2023-05-08T10:28:03.505Z,6992.00
2023-05-08T10:29:01.101Z,6924.00
2023-05-08T10:30:01.003Z,6768.00
2023-05-08T10:31:01.032Z,6536.00
2023-05-08T10:32:00.995Z,6104.00
2023-05-08T10:33:00.967Z,5872.00
2023-05-08T10:34:00.956Z,5872.00
2023-05-08T10:35:00.940Z,6156.00
2023-05-08T10:36:00.953Z,6196.00
2023-05-08T10:37:00.977Z,5940.00
2023-05-08T10:38:00.939Z,5856.00
2023-05-08T10:39:00.878Z,5744.00
2023-05-08T10:40:00.929Z,5532.00
2023-05-08T10:41:00.854Z,5516.00
2023-05-08T10:42:00.895Z,5620.00
2023-05-08T10:43:00.848Z,5620.00
2023-05-08T10:44:03.182Z,5608.00
2023-05-08T10:45:00.845Z,5752.00
2023-05-08T10:46:00.832Z,5852.00
2023-05-08T10:47:00.773Z,5996.00
2023-05-08T10:48:02.329Z,6140.00
2023-05-08T10:49:00.783Z,6156.00
2023-05-08T10:50:00.818Z,6064.00
2023-05-08T10:51:00.802Z,6016.00
2023-05-08T10:52:00.752Z,6100.00
2023-05-08T10:53:00.734Z,6232.00
2023-05-08T10:54:00.715Z,6432.00
2023-05-08T10:55:00.827Z,6400.00
2023-05-08T10:56:01.739Z,6232.00
2023-05-08T10:57:00.730Z,6272.00
2023-05-08T10:58:00.772Z,6140.00
2023-05-08T10:59:00.634Z,6176.00
2023-05-08T11:00:00.664Z,6500.00
2023-05-08T11:01:00.626Z,6848.00
2023-05-08T11:02:00.667Z,7104.00
2023-05-08T11:03:00.705Z,6932.00
2023-05-08T11:04:00.752Z,7152.00
2023-05-08T11:05:00.721Z,7376.00
2023-05-08T11:06:00.594Z,7148.00
2023-05-08T11:07:00.579Z,6796.00
2023-05-08T11:08:00.593Z,6608.00
2023-05-08T11:09:01.028Z,6436.00
2023-05-08T11:10:00.600Z,6552.00
2023-05-08T11:11:00.528Z,6740.00
2023-05-08T11:12:00.506Z,6876.00
2023-05-08T11:13:00.624Z,7120.00
2023-05-08T11:14:00.500Z,7284.00
2023-05-08T11:15:00.515Z,7356.00
2023-05-08T11:16:00.540Z,7372.00
2023-05-08T11:17:00.473Z,7364.00
2023-05-08T11:18:00.482Z,7448.00
2023-05-08T11:19:00.405Z,7560.00
2023-05-08T11:20:00.475Z,7692.00
2023-05-08T11:21:00.414Z,7816.00
2023-05-08T11:22:00.418Z,7908.00
2023-05-08T11:23:00.367Z,7948.00
2023-05-08T11:24:00.426Z,7952.00
2023-05-08T11:25:00.386Z,7908.00
2023-05-08T11:26:00.418Z,7868.00
2023-05-08T11:27:00.381Z,7920.00
2023-05-08T11:28:00.843Z,7980.00
2023-05-08T11:29:00.754Z,8072.00
2023-05-08T11:30:00.336Z,8084.00
2023-05-08T11:31:00.282Z,7908.00
2023-05-08T11:32:00.505Z,8052.00
2023-05-08T11:33:00.327Z,8284.00
2023-05-08T11:34:00.283Z,8452.00
2023-05-08T11:35:00.250Z,8516.00
2023-05-08T11:36:00.263Z,8468.00
2023-05-08T11:37:00.220Z,8356.00
2023-05-08T11:38:00.254Z,8464.00
2023-05-08T11:39:00.172Z,8792.00
2023-05-08T11:40:00.273Z,8780.00
2023-05-08T11:41:00.182Z,9124.00
2023-05-08T11:42:00.223Z,9284.00
2023-05-08T11:43:00.184Z,9324.00
2023-05-08T11:44:00.144Z,9320.00
2023-05-08T11:45:00.180Z,9252.00
2023-05-08T11:46:00.128Z,9240.00
2023-05-08T11:47:00.138Z,9368.00
2023-05-08T11:48:00.253Z,9300.00
2023-05-08T11:49:00.068Z,9352.00
2023-05-08T11:50:00.167Z,9456.00
2023-05-08T11:51:00.063Z,9428.00
2023-05-08T11:52:00.180Z,9396.00
2023-05-08T11:53:00.112Z,9324.00
2023-05-08T11:54:00.062Z,9328.00
2023-05-08T11:55:00.055Z,8928.00
2023-05-08T11:56:00.031Z,8684.00
2023-05-08T11:56:59.997Z,8292.00
2023-05-08T11:58:00.069Z,7772.00
2023-05-08T11:58:59.959Z,7532.00
2023-05-08T12:00:00.046Z,7568.00
2023-05-08T12:00:59.949Z,7820.00
2023-05-08T12:02:07.885Z,7424.00
2023-05-08T12:03:01.125Z,7020.00
2023-05-08T12:04:00.639Z,6220.00
2023-05-08T12:04:59.981Z,5448.00
2023-05-08T12:05:59.968Z,5668.00
2023-05-08T12:07:00.110Z,6616.00
2023-05-08T12:08:01.347Z,7584.00
2023-05-08T12:08:59.881Z,7820.00
2023-05-08T12:09:59.898Z,7952.00
2023-05-08T12:11:00.009Z,7832.00
2023-05-08T12:11:59.867Z,7612.00
2023-05-08T12:12:59.851Z,7380.00
2023-05-08T12:13:59.797Z,6908.00
2023-05-08T12:14:59.834Z,7052.00
2023-05-08T12:15:59.887Z,7368.00
2023-05-08T12:16:59.768Z,7800.00
2023-05-08T12:17:59.850Z,8088.00
2023-05-08T12:18:59.800Z,8272.00
2023-05-08T12:19:59.763Z,8680.00
2023-05-08T12:20:59.768Z,9008.00
2023-05-08T12:21:59.812Z,9232.00
2023-05-08T12:22:59.716Z,9304.00
2023-05-08T12:23:59.768Z,9264.00
2023-05-08T12:24:59.714Z,9136.00
2023-05-08T12:25:59.688Z,9004.00
2023-05-08T12:26:59.708Z,8936.00
2023-05-08T12:27:59.674Z,8916.00
2023-05-08T12:28:59.694Z,8964.00
2023-05-08T12:29:59.932Z,9076.00
2023-05-08T12:30:59.686Z,9148.00
2023-05-08T12:31:59.623Z,9184.00